createdAt,value
2018-08-30T00:00:25.331Z,23.10
2018-08-30T00:01:25.564Z,26.40
2018-08-30T00:02:25.792Z,27.70
2018-08-30T00:03:26.024Z,25.10
2018-08-30T00:04:26.262Z,22.70
2018-08-30T00:05:26.475Z,23.20
2018-08-30T00:06:26.704Z,25.60
2018-08-30T00:07:26.940Z,24.30
2018-08-30T00:08:27.174Z,28.10
2018-08-30T00:09:27.399Z,22.70
2018-08-30T00:10:27.642Z,27.00
2018-08-30T00:11:27.855Z,24.90
2018-08-30T00:12:28.085Z,25.40
2018-08-30T00:13:28.316Z,27.60
2018-08-30T00:14:28.545Z,28.70
2018-08-30T00:15:28.773Z,25.40
2018-08-30T00:16:29.004Z,24.90
2018-08-30T00:17:29.240Z,27.70
2018-08-30T00:18:29.462Z,27.20
2018-08-30T00:19:29.688Z,26.30
2018-08-30T00:20:29.937Z,27.50
2018-08-30T00:21:30.142Z,26.70
2018-08-30T00:22:30.373Z,26.00
2018-08-30T00:23:30.598Z,26.60
2018-08-30T00:24:30.830Z,27.60
2018-08-30T00:25:31.057Z,23.90
2018-08-30T00:26:31.286Z,25.50
2018-08-30T00:27:31.524Z,29.00
2018-08-30T00:28:31.743Z,26.10
2018-08-30T00:29:31.973Z,26.80
2018-08-30T00:30:32.212Z,25.40
2018-08-30T00:31:32.446Z,24.20
2018-08-30T00:32:32.665Z,24.00
2018-08-30T00:33:32.898Z,24.20
2018-08-30T00:34:33.124Z,26.50
2018-08-30T00:35:33.353Z,23.90
2018-08-30T00:36:33.586Z,27.70
2018-08-30T00:37:33.804Z,28.90
2018-08-30T00:38:34.037Z,28.50
2018-08-30T00:39:34.253Z,28.50
2018-08-30T00:40:34.485Z,27.90
2018-08-30T00:41:34.719Z,24.90
2018-08-30T00:42:34.950Z,29.30
2018-08-30T00:43:35.177Z,29.30
2018-08-30T00:44:35.394Z,27.80
2018-08-30T00:45:35.626Z,25.70
2018-08-30T00:46:35.855Z,25.30
2018-08-30T00:47:36.086Z,25.00
2018-08-30T00:48:36.322Z,23.60
2018-08-30T00:49:36.543Z,23.00
2018-08-30T00:50:36.777Z,24.80
2018-08-30T00:51:37.004Z,22.90
2018-08-30T00:52:37.238Z,23.50
2018-08-30T00:53:37.471Z,20.70
2018-08-30T00:54:37.684Z,22.60
2018-08-30T00:55:37.913Z,22.00
2018-08-30T00:56:38.142Z,22.70
2018-08-30T00:57:38.372Z,24.30
2018-08-30T00:58:38.609Z,21.50
2018-08-30T00:59:38.834Z,21.80
2018-08-30T01:00:39.057Z,19.80
2018-08-30T01:01:39.283Z,16.20
2018-08-30T01:02:39.515Z,17.70
2018-08-30T01:03:39.744Z,16.20
2018-08-30T01:04:39.971Z,16.50
2018-08-30T01:05:40.207Z,17.30
2018-08-30T01:06:40.434Z,18.90
2018-08-30T01:07:40.664Z,17.90
2018-08-30T01:08:40.895Z,16.60
2018-08-30T01:09:41.125Z,18.40
2018-08-30T01:10:41.352Z,15.80
2018-08-30T01:11:41.581Z,14.40
2018-08-30T01:12:41.814Z,14.80
2018-08-30T01:13:42.050Z,15.60
2018-08-30T01:14:42.284Z,14.90
2018-08-30T01:15:42.502Z,14.70
2018-08-30T01:16:42.730Z,14.90
2018-08-30T01:17:42.970Z,17.00
2018-08-30T01:18:43.200Z,14.40
2018-08-30T01:19:43.411Z,17.00
2018-08-30T01:20:43.642Z,17.40
2018-08-30T01:21:43.875Z,17.60
2018-08-30T01:22:44.110Z,16.20
2018-08-30T01:23:44.334Z,15.90
2018-08-30T01:24:44.561Z,15.60
2018-08-30T01:25:44.787Z,15.70
2018-08-30T01:26:45.036Z,15.90
2018-08-30T01:27:45.245Z,13.80
2018-08-30T01:28:45.474Z,15.90
2018-08-30T01:29:45.705Z,17.00
2018-08-30T01:30:45.937Z,16.50
2018-08-30T01:31:46.165Z,14.70
2018-08-30T01:32:46.392Z,15.70
2018-08-30T01:33:46.620Z,16.30
2018-08-30T01:34:46.857Z,15.90
2018-08-30T01:35:47.075Z,15.20
2018-08-30T01:36:47.305Z,16.50
2018-08-30T01:37:47.539Z,19.90
2018-08-30T01:38:47.766Z,19.80
2018-08-30T01:39:48.001Z,17.40
2018-08-30T01:40:48.227Z,17.10
2018-08-30T01:41:48.444Z,17.40
2018-08-30T01:42:48.682Z,18.40
2018-08-30T01:43:48.900Z,18.60
2018-08-30T01:44:49.129Z,18.40
2018-08-30T01:45:49.372Z,20.50
2018-08-30T01:46:49.599Z,20.20
2018-08-30T01:47:49.824Z,22.30
2018-08-30T01:48:50.052Z,21.00
2018-08-30T01:49:50.297Z,21.20
2018-08-30T01:50:50.511Z,22.00
2018-08-30T01:51:50.744Z,23.30
2018-08-30T01:52:50.975Z,22.80
2018-08-30T01:53:51.200Z,22.40
2018-08-30T01:54:51.432Z,26.10
2018-08-30T01:55:51.660Z,24.60
2018-08-30T01:56:51.887Z,26.30
2018-08-30T01:57:52.118Z,26.90
2018-08-30T01:58:52.348Z,25.60
2018-08-30T01:59:52.582Z,29.20
2018-08-30T02:00:52.809Z,27.20
2018-08-30T02:01:53.037Z,25.20
2018-08-30T02:02:53.269Z,27.90
2018-08-30T02:03:53.499Z,25.40
2018-08-30T02:04:53.725Z,28.10
2018-08-30T02:05:53.948Z,28.10
2018-08-30T02:06:54.174Z,28.30
2018-08-30T02:07:54.408Z,30.00
2018-08-30T02:08:54.635Z,29.30
2018-08-30T02:09:54.872Z,30.80
2018-08-30T02:10:55.098Z,34.70
2018-08-30T02:11:55.328Z,31.90
2018-08-30T02:12:55.565Z,34.40
2018-08-30T02:13:55.783Z,36.80
2018-08-30T02:14:56.012Z,36.30
2018-08-30T02:15:56.238Z,33.30
2018-08-30T02:16:56.471Z,32.60
2018-08-30T02:17:56.701Z,34.20
2018-08-30T02:18:56.920Z,34.70
2018-08-30T02:19:57.141Z,38.90
2018-08-30T02:20:57.362Z,40.50
2018-08-30T02:21:57.591Z,38.50
2018-08-30T02:22:57.819Z,39.20
2018-08-30T02:23:58.049Z,37.00
2018-08-30T02:24:58.289Z,39.90
2018-08-30T02:25:58.518Z,43.30
2018-08-30T02:26:58.735Z,39.50
2018-08-30T02:27:58.976Z,39.80
2018-08-30T02:28:59.202Z,44.40
2018-08-30T02:29:59.435Z,43.40
2018-08-30T02:30:59.671Z,43.20
2018-08-30T02:32:08.818Z,43.60
2018-08-30T02:33:07.967Z,44.50
2018-08-30T02:34:00.412Z,42.40
2018-08-30T02:35:08.518Z,45.20
2018-08-30T02:36:00.836Z,44.60
2018-08-30T02:37:01.060Z,44.10
2018-08-30T02:38:09.213Z,47.50
2018-08-30T02:39:09.479Z,44.30
2018-08-30T02:40:09.651Z,44.40
2018-08-30T02:41:02.074Z,38.60
2018-08-30T02:42:02.304Z,43.90
2018-08-30T02:43:02.529Z,44.80
2018-08-30T02:44:02.777Z,51.50
2018-08-30T02:45:02.991Z,44.80
2018-08-30T02:46:03.214Z,45.30
2018-08-30T02:47:03.452Z,45.20
2018-08-30T02:48:03.675Z,50.50
2018-08-30T02:49:03.954Z,47.40
2018-08-30T02:50:04.150Z,47.20
2018-08-30T02:51:05.936Z,42.90
2018-08-30T02:52:04.535Z,48.00
2018-08-30T02:53:04.779Z,45.70
2018-08-30T02:54:05.005Z,47.80
2018-08-30T02:55:05.231Z,52.20
2018-08-30T02:56:05.456Z,46.30
2018-08-30T02:57:05.687Z,49.10
2018-08-30T02:58:05.915Z,50.00
2018-08-30T02:59:06.146Z,49.20
2018-08-30T03:00:06.385Z,51.70
2018-08-30T03:01:06.618Z,51.90
2018-08-30T03:02:06.829Z,51.80
2018-08-30T03:03:07.058Z,55.20
2018-08-30T03:04:07.284Z,52.70
2018-08-30T03:05:07.512Z,48.20
2018-08-30T03:06:07.742Z,50.80
2018-08-30T03:07:07.975Z,49.90
2018-08-30T03:08:08.204Z,52.60
2018-08-30T03:09:08.437Z,54.10
2018-08-30T03:10:08.662Z,49.80
2018-08-30T03:11:08.919Z,46.10
2018-08-30T03:12:09.133Z,51.00
2018-08-30T03:13:09.355Z,49.70
2018-08-30T03:14:09.581Z,48.80
2018-08-30T03:15:09.800Z,47.40
2018-08-30T03:16:10.043Z,51.40
2018-08-30T03:17:10.255Z,47.40
2018-08-30T03:18:10.493Z,47.40
2018-08-30T03:19:10.720Z,48.50
2018-08-30T03:20:10.963Z,45.70
2018-08-30T03:21:11.180Z,44.40
2018-08-30T03:22:11.517Z,45.60
2018-08-30T03:23:11.602Z,44.90
2018-08-30T03:24:11.830Z,43.10
2018-08-30T03:25:12.064Z,44.30
2018-08-30T03:26:12.289Z,45.90
2018-08-30T03:27:12.516Z,48.40
2018-08-30T03:28:12.746Z,44.50
2018-08-30T03:29:12.976Z,43.70
2018-08-30T03:30:13.219Z,46.40
2018-08-30T03:31:13.436Z,44.50
2018-08-30T03:32:13.660Z,44.10
2018-08-30T03:33:13.889Z,41.80
2018-08-30T03:34:14.114Z,40.70
2018-08-30T03:35:14.349Z,43.20
2018-08-30T03:36:14.576Z,44.70
2018-08-30T03:37:14.811Z,41.30
2018-08-30T03:38:15.041Z,41.20
2018-08-30T03:39:15.266Z,43.20
2018-08-30T03:40:15.489Z,40.60
2018-08-30T03:41:15.724Z,40.70
2018-08-30T03:42:15.953Z,37.90
2018-08-30T03:43:16.186Z,41.40
2018-08-30T03:44:16.415Z,35.20
2018-08-30T03:45:16.643Z,40.40
2018-08-30T03:46:16.867Z,36.90
2018-08-30T03:47:17.099Z,39.40
2018-08-30T03:48:17.327Z,37.50
2018-08-30T03:49:17.560Z,35.10
2018-08-30T03:50:17.788Z,34.40
2018-08-30T03:51:18.017Z,34.30
2018-08-30T03:52:18.246Z,31.20
2018-08-30T03:53:18.466Z,30.60
2018-08-30T03:54:18.702Z,32.00
2018-08-30T03:55:19.014Z,31.40
2018-08-30T03:56:19.159Z,31.70
2018-08-30T03:57:19.390Z,32.00
2018-08-30T03:58:19.648Z,27.00
2018-08-30T03:59:19.852Z,27.60
2018-08-30T04:00:20.081Z,29.40
2018-08-30T04:01:20.309Z,29.60
2018-08-30T04:02:20.543Z,27.10
2018-08-30T04:03:20.776Z,28.90
2018-08-30T04:04:21.102Z,27.40
2018-08-30T04:05:21.242Z,26.60
2018-08-30T04:06:21.468Z,28.20
2018-08-30T04:07:21.700Z,28.40
2018-08-30T04:08:21.932Z,25.90
2018-08-30T04:09:22.161Z,24.10
2018-08-30T04:10:22.394Z,27.30
2018-08-30T04:11:22.617Z,25.90
2018-08-30T04:12:22.849Z,24.10
2018-08-30T04:13:23.124Z,24.50
2018-08-30T04:14:23.311Z,23.70
2018-08-30T04:15:23.544Z,21.70
2018-08-30T04:16:23.774Z,24.00
2018-08-30T04:17:24.002Z,23.70
2018-08-30T04:18:24.231Z,23.40
2018-08-30T04:19:24.468Z,21.00
2018-08-30T04:20:24.688Z,21.60
2018-08-30T04:21:24.918Z,20.80
2018-08-30T04:22:25.148Z,19.10
2018-08-30T04:23:25.382Z,21.40
2018-08-30T04:24:25.611Z,20.80
2018-08-30T04:25:25.838Z,22.10
2018-08-30T04:26:26.068Z,22.40
2018-08-30T04:27:26.290Z,20.70
2018-08-30T04:28:26.515Z,17.60
2018-08-30T04:29:26.749Z,20.00
2018-08-30T04:30:26.986Z,20.40
2018-08-30T04:31:27.269Z,16.60
2018-08-30T04:32:27.441Z,19.40
2018-08-30T04:33:27.667Z,16.70
2018-08-30T04:34:27.901Z,15.70
2018-08-30T04:35:28.129Z,15.90
2018-08-30T04:36:28.362Z,15.50
2018-08-30T04:37:28.601Z,17.90
2018-08-30T04:38:28.831Z,15.20
2018-08-30T04:39:29.045Z,15.80
2018-08-30T04:40:29.273Z,15.00
2018-08-30T04:41:29.503Z,14.60
2018-08-30T04:42:29.792Z,14.20
2018-08-30T04:43:29.966Z,11.10
2018-08-30T04:44:30.205Z,10.60
2018-08-30T04:45:30.437Z,9.90
2018-08-30T04:46:30.674Z,9.10
2018-08-30T04:47:30.904Z,7.20
2018-08-30T04:48:31.129Z,6.30
2018-08-30T04:49:31.362Z,6.00
2018-08-30T04:50:31.600Z,4.60
2018-08-30T04:51:31.814Z,7.30
2018-08-30T04:52:32.046Z,5.50
2018-08-30T04:53:32.271Z,5.40
2018-08-30T04:54:32.497Z,5.60
2018-08-30T04:55:32.727Z,6.40
2018-08-30T04:56:32.959Z,4.30
2018-08-30T04:57:33.189Z,2.90
2018-08-30T04:58:33.415Z,3.80
2018-08-30T04:59:33.647Z,5.70
2018-08-30T05:00:33.883Z,3.10
2018-08-30T05:01:34.108Z,2.00
2018-08-30T05:02:34.330Z,4.70
2018-08-30T05:03:34.570Z,1.60
2018-08-30T05:04:34.797Z,2.50
2018-08-30T05:05:35.019Z,1.50
2018-08-30T05:06:35.252Z,1.80
2018-08-30T05:07:35.480Z,1.70
2018-08-30T05:08:35.709Z,2.50
2018-08-30T05:09:35.936Z,1.30
2018-08-30T05:10:36.157Z,2.70
2018-08-30T05:11:36.388Z,1.20
2018-08-30T05:12:36.620Z,1.10
2018-08-30T05:13:36.849Z,1.30
2018-08-30T05:14:37.076Z,1.20
2018-08-30T05:15:37.306Z,1.00
2018-08-30T05:16:37.615Z,1.70
2018-08-30T05:17:37.766Z,1.60
2018-08-30T05:18:37.997Z,1.80
2018-08-30T05:19:38.224Z,1.20
2018-08-30T05:20:38.457Z,1.20
2018-08-30T05:21:38.683Z,1.70
2018-08-30T05:22:38.908Z,1.30
2018-08-30T05:23:39.139Z,1.40
2018-08-30T05:24:39.369Z,1.20
2018-08-30T05:25:39.600Z,1.80
2018-08-30T05:26:39.832Z,1.10
2018-08-30T05:27:40.061Z,1.50
2018-08-30T05:28:40.291Z,3.60
2018-08-30T05:29:40.557Z,1.40
2018-08-30T05:30:40.749Z,1.40
2018-08-30T05:31:40.978Z,1.10
2018-08-30T05:32:41.206Z,1.70
2018-08-30T05:33:41.439Z,1.30
2018-08-30T05:34:41.664Z,1.10
2018-08-30T05:35:41.930Z,2.40
2018-08-30T05:36:42.124Z,1.30
2018-08-30T05:37:42.375Z,1.40
2018-08-30T05:38:42.581Z,1.30
2018-08-30T05:39:42.811Z,0.90
2018-08-30T05:40:43.037Z,1.00
2018-08-30T05:41:43.273Z,1.90
2018-08-30T05:42:43.502Z,1.10
2018-08-30T05:43:43.735Z,1.60
2018-08-30T05:44:43.977Z,1.30
2018-08-30T05:45:44.189Z,1.30
2018-08-30T05:46:44.422Z,1.60
2018-08-30T05:47:44.655Z,1.30
2018-08-30T05:48:44.880Z,1.40
2018-08-30T05:49:45.116Z,1.40
2018-08-30T05:50:45.344Z,1.10
2018-08-30T05:51:45.577Z,0.70
2018-08-30T05:52:45.801Z,1.90
2018-08-30T05:53:46.032Z,0.90
2018-08-30T05:54:46.263Z,1.30
2018-08-30T05:55:46.490Z,2.30
2018-08-30T05:56:54.638Z,1.00
2018-08-30T05:57:54.876Z,1.30
2018-08-30T05:58:47.107Z,1.40
2018-08-30T05:59:55.381Z,1.30
2018-08-30T06:00:55.495Z,1.10
2018-08-30T06:01:47.863Z,2.70
2018-08-30T06:02:56.067Z,1.10
2018-08-30T06:03:56.312Z,1.00
2018-08-30T06:04:48.562Z,1.70
2018-08-30T06:05:48.771Z,1.10
2018-08-30T06:06:49.008Z,4.50
2018-08-30T06:07:49.236Z,1.20
2018-08-30T06:08:49.477Z,1.10
2018-08-30T06:09:49.932Z,1.20
2018-08-30T06:10:49.897Z,1.10
2018-08-30T06:11:50.131Z,3.20
2018-08-30T06:12:50.361Z,1.30
2018-08-30T06:13:50.583Z,1.30
2018-08-30T06:14:50.821Z,1.20
2018-08-30T06:15:51.048Z,1.00
2018-08-30T06:16:51.290Z,2.50
2018-08-30T06:17:51.517Z,1.10
2018-08-30T06:18:51.742Z,1.00
2018-08-30T06:19:51.972Z,1.10
2018-08-30T06:20:52.200Z,1.10
2018-08-30T06:21:52.429Z,2.90
2018-08-30T06:22:52.667Z,1.00
2018-08-30T06:23:52.894Z,1.20
2018-08-30T06:24:53.124Z,1.60
2018-08-30T06:25:53.349Z,1.30
2018-08-30T06:26:53.621Z,1.80
2018-08-30T06:27:53.800Z,1.60
2018-08-30T06:28:54.034Z,3.30
2018-08-30T06:29:54.264Z,1.40
2018-08-30T06:30:54.494Z,3.90
2018-08-30T06:31:54.723Z,1.50
2018-08-30T06:32:55.019Z,1.90
2018-08-30T06:33:55.182Z,1.70
2018-08-30T06:34:55.409Z,2.00
2018-08-30T06:35:55.637Z,1.20
2018-08-30T06:36:55.886Z,2.00
2018-08-30T06:37:56.097Z,1.40
2018-08-30T06:38:56.325Z,2.00
2018-08-30T06:39:56.556Z,1.50
2018-08-30T06:40:56.775Z,2.90
2018-08-30T06:41:57.005Z,1.90
2018-08-30T06:42:57.239Z,1.40
2018-08-30T06:43:57.465Z,1.80
2018-08-30T06:44:57.696Z,2.20
2018-08-30T06:45:57.923Z,1.50
2018-08-30T06:46:58.156Z,1.60
2018-08-30T06:47:58.385Z,1.50
2018-08-30T06:48:58.620Z,2.60
2018-08-30T06:49:58.847Z,2.60
2018-08-30T06:50:59.072Z,2.10
2018-08-30T06:51:59.310Z,1.60
2018-08-30T06:52:59.526Z,2.20
2018-08-30T06:53:59.757Z,1.80
2018-08-30T06:54:59.987Z,1.60
2018-08-30T06:56:00.216Z,2.20
2018-08-30T06:57:00.448Z,1.70
2018-08-30T06:58:00.672Z,1.50
2018-08-30T06:59:00.907Z,2.30
2018-08-30T07:00:01.139Z,1.70
2018-08-30T07:01:01.363Z,1.40
2018-08-30T07:02:01.596Z,1.70
2018-08-30T07:03:01.821Z,1.60
2018-08-30T07:04:02.054Z,2.20
2018-08-30T07:05:02.284Z,1.50
2018-08-30T07:06:02.513Z,1.60
2018-08-30T07:07:02.744Z,2.30
2018-08-30T07:08:02.975Z,1.90
2018-08-30T07:09:03.200Z,2.20
2018-08-30T07:10:03.440Z,2.00
2018-08-30T07:11:03.660Z,2.60
2018-08-30T07:12:03.894Z,2.70
2018-08-30T07:13:04.118Z,3.00
2018-08-30T07:14:04.345Z,3.40
2018-08-30T07:15:04.615Z,4.50
2018-08-30T07:16:04.807Z,4.90
2018-08-30T07:17:05.037Z,5.50
2018-08-30T07:18:05.269Z,4.60
2018-08-30T07:19:05.501Z,4.30
2018-08-30T07:20:05.723Z,4.80
2018-08-30T07:21:06.037Z,4.10
2018-08-30T07:22:06.183Z,5.10
2018-08-30T07:23:06.408Z,4.30
2018-08-30T07:24:06.644Z,7.20
2018-08-30T07:25:06.867Z,10.10
2018-08-30T07:26:07.097Z,10.40
2018-08-30T07:27:07.325Z,5.70
2018-08-30T07:28:07.569Z,7.90
2018-08-30T07:29:07.780Z,8.20
2018-08-30T07:30:08.004Z,5.50
2018-08-30T07:31:08.230Z,6.90
2018-08-30T07:32:08.465Z,9.40
2018-08-30T07:33:08.691Z,6.00
2018-08-30T07:34:08.951Z,6.30
2018-08-30T07:35:09.222Z,6.70
2018-08-30T07:36:09.381Z,6.70
2018-08-30T07:37:09.621Z,7.20
2018-08-30T07:38:09.845Z,8.20
2018-08-30T07:39:10.061Z,11.20
2018-08-30T07:40:10.291Z,9.10
2018-08-30T07:41:10.518Z,8.70
2018-08-30T07:42:10.756Z,8.50
2018-08-30T07:43:10.986Z,10.50
2018-08-30T07:44:11.292Z,8.30
2018-08-30T07:45:11.443Z,9.30
2018-08-30T07:46:11.676Z,9.20
2018-08-30T07:47:11.949Z,10.50
2018-08-30T07:48:12.140Z,9.90
2018-08-30T07:49:12.379Z,9.40
2018-08-30T07:50:12.601Z,8.10
2018-08-30T07:51:12.832Z,9.80
2018-08-30T07:52:13.053Z,9.40
2018-08-30T07:53:13.283Z,9.60
2018-08-30T07:54:13.511Z,9.80
2018-08-30T07:55:13.745Z,8.40
2018-08-30T07:56:13.975Z,10.70
2018-08-30T07:57:14.255Z,9.00
2018-08-30T07:58:14.434Z,8.20
2018-08-30T07:59:14.666Z,7.30
2018-08-30T08:00:14.890Z,7.80
2018-08-30T08:01:15.122Z,10.80
2018-08-30T08:02:15.372Z,8.30
2018-08-30T08:03:15.571Z,8.70
2018-08-30T08:04:15.813Z,9.70
2018-08-30T08:05:16.046Z,11.30
2018-08-30T08:06:16.275Z,10.10
2018-08-30T08:07:16.564Z,10.20
2018-08-30T08:08:16.731Z,11.10
2018-08-30T08:09:16.970Z,12.00
2018-08-30T08:10:17.222Z,10.80
2018-08-30T08:11:17.453Z,10.20
2018-08-30T08:12:17.681Z,10.80
2018-08-30T08:13:17.908Z,10.30
2018-08-30T08:14:18.139Z,10.60
2018-08-30T08:15:18.369Z,13.20
2018-08-30T08:16:18.598Z,9.20
2018-08-30T08:17:18.826Z,10.50
2018-08-30T08:18:19.058Z,11.60
2018-08-30T08:19:19.286Z,10.60
2018-08-30T08:20:19.519Z,11.20
2018-08-30T08:21:19.754Z,10.50
2018-08-30T08:22:19.988Z,10.40
2018-08-30T08:23:20.216Z,9.80
2018-08-30T08:24:20.451Z,10.40
2018-08-30T08:25:20.726Z,11.50
2018-08-30T08:26:20.905Z,11.00
2018-08-30T08:27:21.137Z,10.70
2018-08-30T08:28:21.369Z,12.90
2018-08-30T08:29:21.598Z,11.20
2018-08-30T08:30:21.828Z,12.40
2018-08-30T08:31:22.164Z,11.60
2018-08-30T08:32:22.294Z,12.70
2018-08-30T08:33:22.517Z,11.80
2018-08-30T08:34:22.747Z,11.70
2018-08-30T08:35:22.977Z,12.50
2018-08-30T08:36:23.205Z,12.70
2018-08-30T08:37:23.437Z,11.60
2018-08-30T08:38:23.666Z,11.30
2018-08-30T08:39:23.897Z,12.70
2018-08-30T08:40:24.121Z,10.50
2018-08-30T08:41:24.344Z,13.00
2018-08-30T08:42:24.573Z,10.60
2018-08-30T08:43:24.827Z,12.40
2018-08-30T08:44:25.058Z,11.50
2018-08-30T08:45:25.289Z,11.80
2018-08-30T08:46:25.508Z,11.90
2018-08-30T08:47:25.752Z,12.70
2018-08-30T08:48:25.981Z,11.70
2018-08-30T08:49:26.218Z,11.10
2018-08-30T08:50:26.443Z,12.00
2018-08-30T08:51:26.691Z,10.60
2018-08-30T08:52:26.905Z,11.00
2018-08-30T08:53:27.136Z,10.60
2018-08-30T08:54:27.354Z,10.20
2018-08-30T08:55:27.590Z,9.30
2018-08-30T08:56:27.818Z,10.60
2018-08-30T08:57:28.056Z,10.60
2018-08-30T08:58:28.280Z,12.30
2018-08-30T08:59:28.510Z,11.80
2018-08-30T09:00:28.738Z,12.10
2018-08-30T09:01:29.027Z,11.30
2018-08-30T09:02:29.201Z,10.60
2018-08-30T09:03:29.435Z,12.70
2018-08-30T09:04:29.663Z,12.70
2018-08-30T09:05:29.894Z,10.50
2018-08-30T09:06:30.177Z,11.80
2018-08-30T09:07:30.406Z,12.30
2018-08-30T09:08:30.591Z,13.20
2018-08-30T09:09:30.819Z,11.80
2018-08-30T09:10:31.051Z,10.20
2018-08-30T09:11:31.285Z,10.00
2018-08-30T09:12:31.505Z,14.60
2018-08-30T09:13:31.733Z,11.70
2018-08-30T09:14:32.015Z,10.80
2018-08-30T09:15:32.194Z,11.20
2018-08-30T09:16:32.431Z,11.30
2018-08-30T09:17:32.657Z,11.60
2018-08-30T09:18:32.984Z,12.90
2018-08-30T09:19:33.125Z,11.80
2018-08-30T09:20:33.399Z,12.50
2018-08-30T09:21:33.581Z,13.20
2018-08-30T09:22:33.821Z,13.20
2018-08-30T09:23:34.052Z,12.90
2018-08-30T09:24:34.283Z,14.00
2018-08-30T09:25:34.514Z,12.00
2018-08-30T09:26:34.742Z,13.20
2018-08-30T09:27:34.978Z,12.60
2018-08-30T09:28:35.206Z,12.00
2018-08-30T09:29:35.442Z,12.20
2018-08-30T09:30:35.674Z,15.30
2018-08-30T09:31:35.908Z,11.80
2018-08-30T09:32:45.241Z,12.50
2018-08-30T09:33:44.294Z,10.50
2018-08-30T09:34:44.418Z,11.80
2018-08-30T09:35:45.693Z,11.10
2018-08-30T09:36:44.959Z,11.50
2018-08-30T09:37:45.371Z,12.70
2018-08-30T09:38:37.570Z,11.60
2018-08-30T09:39:45.621Z,12.50
2018-08-30T09:40:38.079Z,11.70
2018-08-30T09:41:38.304Z,10.80
2018-08-30T09:42:47.327Z,11.70
2018-08-30T09:43:38.791Z,11.30
2018-08-30T09:44:38.997Z,10.10
2018-08-30T09:45:39.230Z,11.10
2018-08-30T09:46:39.456Z,9.40
2018-08-30T09:47:39.694Z,10.80
2018-08-30T09:48:39.924Z,9.50
2018-08-30T09:49:40.187Z,11.00
2018-08-30T09:50:40.385Z,12.50
2018-08-30T09:51:40.621Z,9.20
2018-08-30T09:52:40.860Z,10.70
2018-08-30T09:53:41.084Z,8.80
2018-08-30T09:54:41.319Z,9.60
2018-08-30T09:55:41.579Z,10.20
2018-08-30T09:56:41.855Z,10.00
2018-08-30T09:57:42.081Z,8.90
2018-08-30T09:58:42.245Z,13.10
2018-08-30T09:59:42.490Z,9.30
2018-08-30T10:00:42.719Z,9.90
2018-08-30T10:01:42.950Z,10.00
2018-08-30T10:02:43.184Z,11.80
2018-08-30T10:03:43.465Z,8.70
2018-08-30T10:04:43.745Z,9.30
2018-08-30T10:05:43.882Z,10.60
2018-08-30T10:06:44.133Z,11.60
2018-08-30T10:07:44.353Z,10.30
2018-08-30T10:08:44.578Z,10.30
2018-08-30T10:09:44.816Z,10.60
2018-08-30T10:10:45.044Z,11.30
2018-08-30T10:11:45.274Z,10.80
2018-08-30T10:12:45.515Z,10.20
2018-08-30T10:13:45.752Z,10.50
2018-08-30T10:14:45.984Z,10.40
2018-08-30T10:15:46.258Z,10.20
2018-08-30T10:16:46.452Z,10.80
2018-08-30T10:17:46.682Z,11.10
2018-08-30T10:18:46.911Z,11.20
2018-08-30T10:19:47.146Z,12.70
2018-08-30T10:20:47.369Z,12.10
2018-08-30T10:21:47.607Z,9.60
2018-08-30T10:22:47.838Z,10.10
2018-08-30T10:23:48.068Z,9.80
2018-08-30T10:24:48.308Z,11.70
2018-08-30T10:25:48.534Z,10.80
2018-08-30T10:26:48.761Z,9.80
2018-08-30T10:27:48.993Z,9.20
2018-08-30T10:28:49.228Z,10.80
2018-08-30T10:29:49.458Z,8.40
2018-08-30T10:30:49.689Z,9.60
2018-08-30T10:31:49.940Z,8.60
2018-08-30T10:32:50.148Z,9.40
2018-08-30T10:33:50.384Z,10.90
2018-08-30T10:34:50.620Z,10.20
2018-08-30T10:35:50.852Z,10.60
2018-08-30T10:36:51.090Z,10.30
2018-08-30T10:37:51.333Z,9.60
2018-08-30T10:38:51.535Z,11.00
2018-08-30T10:39:51.767Z,10.40
2018-08-30T10:40:52.005Z,12.50
2018-08-30T10:41:52.228Z,11.00
2018-08-30T10:42:52.507Z,11.80
2018-08-30T10:43:52.687Z,10.90
2018-08-30T10:44:52.922Z,12.40
2018-08-30T10:45:53.163Z,13.30
2018-08-30T10:46:53.383Z,11.30
2018-08-30T10:47:53.617Z,11.30
2018-08-30T10:48:53.848Z,12.00
2018-08-30T10:49:54.121Z,12.70
2018-08-30T10:50:54.312Z,14.90
2018-08-30T10:51:54.539Z,11.50
2018-08-30T10:52:54.784Z,12.20
2018-08-30T10:53:54.995Z,11.30
2018-08-30T10:54:55.228Z,11.70
2018-08-30T10:55:55.461Z,11.50
2018-08-30T10:56:55.698Z,9.60
2018-08-30T10:57:55.920Z,10.40
2018-08-30T10:58:56.152Z,10.60
2018-08-30T10:59:56.388Z,12.00
2018-08-30T11:00:56.619Z,11.90
2018-08-30T11:01:56.848Z,12.20
2018-08-30T11:02:57.087Z,11.00
2018-08-30T11:03:57.347Z,10.20
2018-08-30T11:04:57.550Z,10.80
2018-08-30T11:05:57.780Z,12.10
2018-08-30T11:06:58.015Z,12.30
2018-08-30T11:07:58.238Z,12.90
2018-08-30T11:08:58.493Z,11.00
2018-08-30T11:09:58.728Z,11.80
2018-08-30T11:10:58.960Z,11.10
2018-08-30T11:11:59.191Z,11.40
2018-08-30T11:12:59.648Z,12.60
2018-08-30T11:13:59.783Z,9.60
2018-08-30T11:14:59.913Z,12.00
2018-08-30T11:16:00.144Z,12.30
2018-08-30T11:17:00.384Z,10.20
2018-08-30T11:18:00.617Z,11.40
2018-08-30T11:19:00.847Z,9.90
2018-08-30T11:20:01.083Z,9.50
2018-08-30T11:21:01.313Z,10.80
2018-08-30T11:22:01.550Z,11.00
2018-08-30T11:23:01.778Z,12.40
2018-08-30T11:24:02.007Z,11.80
2018-08-30T11:25:02.239Z,11.80
2018-08-30T11:26:02.471Z,10.50
2018-08-30T11:27:02.707Z,10.40
2018-08-30T11:28:02.943Z,12.30
2018-08-30T11:29:03.172Z,11.10
2018-08-30T11:30:03.405Z,11.90
2018-08-30T11:31:03.632Z,12.70
2018-08-30T11:32:03.866Z,11.90
2018-08-30T11:33:04.099Z,18.00
2018-08-30T11:34:04.338Z,14.30
2018-08-30T11:35:04.557Z,13.40
2018-08-30T11:36:04.792Z,16.60
2018-08-30T11:37:05.038Z,14.50
2018-08-30T11:38:05.254Z,12.70
2018-08-30T11:39:05.489Z,15.50
2018-08-30T11:40:05.726Z,15.50
2018-08-30T11:41:06.007Z,19.10
2018-08-30T11:42:06.186Z,15.60
2018-08-30T11:43:06.418Z,13.80
2018-08-30T11:44:06.649Z,16.50
2018-08-30T11:45:06.885Z,16.60
2018-08-30T11:46:07.121Z,16.60
2018-08-30T11:47:07.358Z,15.30
2018-08-30T11:48:07.591Z,16.00
2018-08-30T11:49:07.818Z,15.50
2018-08-30T11:50:08.051Z,17.70
2018-08-30T11:51:08.329Z,15.70
2018-08-30T11:52:08.511Z,15.10
2018-08-30T11:53:08.732Z,14.90
2018-08-30T11:54:08.971Z,15.70
2018-08-30T11:55:09.200Z,14.40
2018-08-30T11:56:09.453Z,17.80
2018-08-30T11:57:09.660Z,14.10
2018-08-30T11:58:09.898Z,15.20
2018-08-30T11:59:10.133Z,17.60
2018-08-30T12:00:10.362Z,16.80
2018-08-30T12:01:10.598Z,15.00
2018-08-30T12:02:10.829Z,16.50
2018-08-30T12:03:11.061Z,15.80
2018-08-30T12:04:11.292Z,15.60
2018-08-30T12:05:11.524Z,16.00
2018-08-30T12:06:11.755Z,15.60
2018-08-30T12:07:11.987Z,15.20
2018-08-30T12:08:12.234Z,14.60
2018-08-30T12:09:12.449Z,13.70
2018-08-30T12:10:12.700Z,12.30
2018-08-30T12:11:12.989Z,13.30
2018-08-30T12:12:13.151Z,14.50
2018-08-30T12:13:13.373Z,12.40
2018-08-30T12:14:13.603Z,12.50
2018-08-30T12:15:13.836Z,10.90
2018-08-30T12:16:14.068Z,11.90
2018-08-30T12:17:14.299Z,11.70
2018-08-30T12:18:14.531Z,11.70
2018-08-30T12:19:14.766Z,11.20
2018-08-30T12:20:15.000Z,15.00
2018-08-30T12:21:15.235Z,12.50
2018-08-30T12:22:15.465Z,12.20
2018-08-30T12:23:15.698Z,12.60
2018-08-30T12:24:15.931Z,13.90
2018-08-30T12:25:16.165Z,13.10
2018-08-30T12:26:16.395Z,14.30
2018-08-30T12:27:16.629Z,10.50
2018-08-30T12:28:16.954Z,12.20
2018-08-30T12:29:17.103Z,14.60
2018-08-30T12:30:17.387Z,11.10
2018-08-30T12:31:17.680Z,11.90
2018-08-30T12:32:17.845Z,11.50
2018-08-30T12:33:18.058Z,12.50
2018-08-30T12:34:18.293Z,11.50
2018-08-30T12:35:18.588Z,12.50
2018-08-30T12:36:18.788Z,12.70
2018-08-30T12:37:19.065Z,12.20
2018-08-30T12:38:19.251Z,14.20
2018-08-30T12:39:19.542Z,14.10
2018-08-30T12:40:19.796Z,12.10
2018-08-30T12:41:19.958Z,11.70
2018-08-30T12:42:20.208Z,11.90
2018-08-30T12:43:20.479Z,12.50
2018-08-30T12:44:20.635Z,15.10
2018-08-30T12:45:20.907Z,12.30
2018-08-30T12:46:21.105Z,12.70
2018-08-30T12:47:21.385Z,10.20
2018-08-30T12:48:21.571Z,14.20
2018-08-30T12:49:21.847Z,12.60
2018-08-30T12:50:22.113Z,12.20
2018-08-30T12:51:22.575Z,11.00
2018-08-30T12:52:22.602Z,11.90
2018-08-30T12:53:22.848Z,10.70
2018-08-30T12:54:23.067Z,11.20
2018-08-30T12:55:23.342Z,11.20
2018-08-30T12:56:23.609Z,10.90
2018-08-30T12:57:23.762Z,12.50
2018-08-30T12:58:24.123Z,9.20
2018-08-30T12:59:24.130Z,11.10
2018-08-30T13:00:24.474Z,10.70
2018-08-30T13:01:24.790Z,11.40
2018-08-30T13:02:25.018Z,9.90